createdAt,value
2019-03-13T00:01:44.135Z,5.40
2019-03-13T00:04:13.638Z,5.40
2019-03-13T00:06:44.735Z,5.40
2019-03-13T00:09:14.039Z,5.40
2019-03-13T00:11:43.553Z,5.40
2019-03-13T00:14:13.124Z,5.40
2019-03-13T00:16:42.446Z,5.30
2019-03-13T00:19:13.983Z,5.30
2019-03-13T00:21:43.926Z,5.30
2019-03-13T00:24:13.394Z,5.30
2019-03-13T00:26:43.318Z,5.30
2019-03-13T00:29:12.923Z,5.40
2019-03-13T00:31:43.523Z,5.30
2019-03-13T00:34:14.516Z,5.30
2019-03-13T00:36:44.424Z,5.30
2019-03-13T00:39:13.820Z,5.30
2019-03-13T00:41:44.849Z,5.30
2019-03-13T00:44:15.574Z,5.30
2019-03-13T00:46:46.510Z,5.30
2019-03-13T00:49:16.142Z,5.20
2019-03-13T00:51:45.634Z,5.20
2019-03-13T00:54:15.831Z,5.10
2019-03-13T00:56:45.223Z,5.10
2019-03-13T00:59:14.692Z,5.10
2019-03-13T01:01:45.767Z,5.10
2019-03-13T01:04:19.674Z,5.10
2019-03-13T01:06:50.932Z,5.10
2019-03-13T01:09:22.366Z,5.20
2019-03-13T01:11:51.871Z,5.20
2019-03-13T01:14:24.022Z,5.20
2019-03-13T01:16:55.943Z,5.30
2019-03-13T01:19:25.362Z,5.30
2019-03-13T01:21:55.586Z,5.30
2019-03-13T01:24:25.100Z,5.30
2019-03-13T01:26:56.681Z,5.30
2019-03-13T01:29:28.219Z,5.30
2019-03-13T01:32:08.503Z,5.20
2019-03-13T01:34:39.799Z,5.30
2019-03-13T01:37:09.188Z,5.30
2019-03-13T01:39:40.102Z,5.30
2019-03-13T01:42:10.812Z,5.20
2019-03-13T01:44:40.847Z,5.20
2019-03-13T01:47:10.466Z,5.30
2019-03-13T01:49:40.043Z,5.30
2019-03-13T01:52:09.368Z,5.30
2019-03-13T01:54:39.199Z,5.30
2019-03-13T01:57:08.843Z,5.40
2019-03-13T01:59:38.663Z,5.40
2019-03-13T02:02:08.675Z,5.40
2019-03-13T02:04:38.725Z,5.40
2019-03-13T02:07:08.762Z,5.40
2019-03-13T02:09:38.825Z,5.30
2019-03-13T02:12:08.158Z,5.30
2019-03-13T02:14:37.775Z,5.40
2019-03-13T02:17:08.875Z,5.40
2019-03-13T02:19:39.565Z,5.30
2019-03-13T02:22:11.211Z,5.30
2019-03-13T02:24:40.648Z,5.30
2019-03-13T02:27:11.008Z,5.30
2019-03-13T02:29:40.903Z,5.30
2019-03-13T02:32:11.488Z,5.30
2019-03-13T02:34:41.032Z,5.30
2019-03-13T02:37:10.918Z,5.20
2019-03-13T02:39:40.428Z,5.20
2019-03-13T02:42:11.158Z,5.20
2019-03-13T02:44:40.915Z,5.30
2019-03-13T02:47:10.496Z,5.30
2019-03-13T02:49:40.010Z,5.30
2019-03-13T02:52:09.639Z,5.30
2019-03-13T02:54:39.495Z,5.20
2019-03-13T02:57:13.444Z,5.30
2019-03-13T02:59:43.045Z,5.30
2019-03-13T03:02:16.794Z,5.40
2019-03-13T03:04:46.867Z,5.60
2019-03-13T03:07:19.414Z,5.60
2019-03-13T03:09:50.143Z,5.50
2019-03-13T03:12:19.751Z,5.50
2019-03-13T03:15:03.216Z,5.60
2019-03-13T03:17:33.986Z,5.60
2019-03-13T03:20:05.625Z,5.60
2019-03-13T03:22:35.094Z,5.60
2019-03-13T03:25:07.527Z,5.60
2019-03-13T03:27:37.303Z,5.60
2019-03-13T03:30:10.340Z,5.60
2019-03-13T03:32:40.157Z,5.70
2019-03-13T03:35:11.387Z,5.70
2019-03-13T03:37:41.601Z,5.70
2019-03-13T03:40:23.406Z,5.70
2019-03-13T03:42:53.217Z,5.60
2019-03-13T03:45:22.980Z,5.60
2019-03-13T03:47:53.808Z,5.60
2019-03-13T03:50:23.270Z,5.60
2019-03-13T03:52:53.193Z,5.70
2019-03-13T03:55:23.153Z,5.70
2019-03-13T03:57:54.366Z,5.70
2019-03-13T04:00:23.870Z,5.70
2019-03-13T04:02:54.224Z,5.70
2019-03-13T04:05:25.931Z,5.80
2019-03-13T04:07:57.094Z,5.70
2019-03-13T04:10:26.781Z,5.80
2019-03-13T04:12:56.263Z,5.80
2019-03-13T04:15:26.612Z,5.90
2019-03-13T04:17:56.259Z,5.80
2019-03-13T04:20:26.083Z,5.80
2019-03-13T04:22:56.669Z,5.80
2019-03-13T04:25:31.814Z,5.80
2019-03-13T04:28:01.258Z,5.90
2019-03-13T04:30:31.261Z,5.90
2019-03-13T04:33:00.854Z,5.90
2019-03-13T04:35:30.221Z,5.90
2019-03-13T04:37:59.810Z,6.00
2019-03-13T04:40:29.301Z,6.00
2019-03-13T04:43:20.012Z,6.00
2019-03-13T04:45:49.888Z,6.00
2019-03-13T04:48:19.984Z,6.00
2019-03-13T04:50:50.323Z,5.90
2019-03-13T04:53:20.358Z,6.00
2019-03-13T04:55:53.171Z,6.00
2019-03-13T04:58:22.502Z,6.00
2019-03-13T05:00:52.602Z,6.10
2019-03-13T05:03:22.142Z,6.10
2019-03-13T05:05:53.120Z,6.10
2019-03-13T05:08:26.267Z,6.10
2019-03-13T05:10:57.904Z,6.10
2019-03-13T05:13:28.011Z,6.10
2019-03-13T05:15:58.017Z,6.10
2019-03-13T05:18:28.918Z,6.20
2019-03-13T05:20:58.591Z,6.20
2019-03-13T05:23:29.043Z,6.10
2019-03-13T05:25:58.603Z,6.10
2019-03-13T05:28:28.206Z,6.20
2019-03-13T05:30:58.918Z,6.20
2019-03-13T05:33:28.512Z,6.20
2019-03-13T05:35:58.057Z,6.20
2019-03-13T05:38:27.807Z,6.20
2019-03-13T05:40:58.792Z,6.20
2019-03-13T05:43:30.769Z,6.20
2019-03-13T05:46:01.112Z,6.30
2019-03-13T05:48:31.125Z,6.30
2019-03-13T05:51:01.910Z,6.30
2019-03-13T05:53:32.617Z,6.30
2019-03-13T05:56:03.186Z,6.40
2019-03-13T05:58:35.029Z,6.40
2019-03-13T06:01:05.973Z,6.40
2019-03-13T06:03:37.469Z,6.40
2019-03-13T06:06:09.055Z,6.40
2019-03-13T06:08:39.039Z,6.50
2019-03-13T06:11:09.517Z,6.50
2019-03-13T06:13:40.963Z,6.60
2019-03-13T06:16:13.900Z,6.60
2019-03-13T06:18:44.110Z,6.60
2019-03-13T06:21:15.509Z,6.60
2019-03-13T06:23:47.862Z,6.60
2019-03-13T06:26:18.945Z,6.60
2019-03-13T06:28:51.190Z,6.60
2019-03-13T06:31:22.921Z,6.60
2019-03-13T06:33:54.660Z,6.60
2019-03-13T06:36:25.838Z,6.60
2019-03-13T06:38:57.173Z,6.60
2019-03-13T06:41:30.347Z,6.60
2019-03-13T06:44:00.780Z,6.60
2019-03-13T06:46:32.899Z,6.60
2019-03-13T06:51:48.364Z,6.60
2019-03-13T06:54:18.971Z,6.60
2019-03-13T06:56:51.452Z,6.70
2019-03-13T06:59:25.339Z,6.70
2019-03-13T07:02:16.900Z,6.70
2019-03-13T07:05:00.073Z,6.60
2019-03-13T07:10:25.372Z,6.20
2019-03-13T07:12:57.223Z,6.20
2019-03-13T07:15:29.870Z,6.20
2019-03-13T07:18:14.409Z,6.30
2019-03-13T07:20:48.734Z,6.50
2019-03-13T07:23:27.513Z,6.70
2019-03-13T07:25:59.245Z,6.70
2019-03-13T07:28:44.511Z,6.80
2019-03-13T07:31:17.671Z,6.90
2019-03-13T07:33:55.154Z,6.90
2019-03-13T07:36:30.390Z,6.90
2019-03-13T07:39:17.470Z,6.90
2019-03-13T07:42:05.288Z,6.90
2019-03-13T07:44:47.045Z,7.00
2019-03-13T07:47:17.440Z,7.10
2019-03-13T07:50:05.812Z,7.10
2019-03-13T07:52:37.522Z,7.10
2019-03-13T07:55:20.105Z,6.90
2019-03-13T07:57:54.701Z,6.60
2019-03-13T08:00:47.829Z,6.50
2019-03-13T08:03:28.493Z,6.60
2019-03-13T08:06:06.375Z,6.70
2019-03-13T08:08:47.838Z,6.80
2019-03-13T08:11:38.906Z,6.80
2019-03-13T08:17:22.850Z,7.00
2019-03-13T08:20:10.879Z,7.00
2019-03-13T08:22:51.670Z,7.00
2019-03-13T08:25:28.316Z,7.00
2019-03-13T08:28:01.951Z,7.00
2019-03-13T08:30:52.713Z,6.90
2019-03-13T08:33:40.452Z,6.90
2019-03-13T08:36:14.458Z,6.90
2019-03-13T08:38:54.573Z,6.90
2019-03-13T08:41:33.006Z,7.00
2019-03-13T08:44:21.902Z,7.00
2019-03-13T08:47:08.971Z,7.10
2019-03-13T08:49:46.355Z,7.10
2019-03-13T08:52:33.750Z,7.20
2019-03-13T08:55:21.334Z,7.30
2019-03-13T08:58:09.553Z,7.40
2019-03-13T09:03:30.415Z,7.40
2019-03-13T09:06:13.879Z,7.40
2019-03-13T09:08:59.092Z,7.40
2019-03-13T09:11:37.549Z,7.30
2019-03-13T09:14:26.112Z,7.20
2019-03-13T09:17:13.620Z,7.10
2019-03-13T09:19:52.163Z,7.10
2019-03-13T09:22:47.743Z,7.00
2019-03-13T09:25:31.725Z,7.00
2019-03-13T09:28:05.769Z,7.00
2019-03-13T09:30:57.246Z,6.90
2019-03-13T09:33:45.524Z,6.90
2019-03-13T09:36:36.444Z,6.90
2019-03-13T09:39:11.184Z,6.90
2019-03-13T09:41:53.563Z,6.90
2019-03-13T09:44:29.042Z,7.00
2019-03-13T09:47:02.474Z,7.00
2019-03-13T09:49:43.789Z,7.00
2019-03-13T09:52:18.392Z,7.10
2019-03-13T09:54:49.948Z,7.10
2019-03-13T09:57:39.023Z,7.10
2019-03-13T10:00:14.141Z,7.20
2019-03-13T10:03:00.313Z,7.10
2019-03-13T10:05:34.478Z,7.00
2019-03-13T10:08:07.452Z,7.00
2019-03-13T10:10:39.589Z,7.00
2019-03-13T10:13:23.938Z,7.00
2019-03-13T10:15:56.075Z,7.10
2019-03-13T10:18:38.114Z,7.20
2019-03-13T10:21:13.345Z,7.20
2019-03-13T10:23:53.418Z,7.20
2019-03-13T10:26:26.406Z,7.10
2019-03-13T10:28:59.776Z,7.00
2019-03-13T10:31:49.932Z,7.00
2019-03-13T10:34:26.099Z,7.10
2019-03-13T10:37:01.353Z,7.20
2019-03-13T10:39:45.239Z,7.20
2019-03-13T10:42:24.433Z,7.30
2019-03-13T10:45:10.640Z,7.50
2019-03-13T10:47:43.692Z,7.40
2019-03-13T10:50:16.532Z,7.20
2019-03-13T10:53:05.110Z,7.00
2019-03-13T10:55:37.270Z,6.80
2019-03-13T10:58:11.387Z,6.60
2019-03-13T11:00:54.415Z,6.50
2019-03-13T11:03:30.562Z,6.40
2019-03-13T11:06:20.395Z,6.40
2019-03-13T11:09:12.409Z,6.50
2019-03-13T11:11:47.934Z,6.40
2019-03-13T11:14:38.185Z,6.40
2019-03-13T11:17:23.435Z,6.30
2019-03-13T11:19:58.649Z,6.20
2019-03-13T11:22:36.768Z,6.20
2019-03-13T11:25:15.857Z,6.30
2019-03-13T11:28:03.972Z,6.40
2019-03-13T11:30:54.577Z,6.50
2019-03-13T11:33:29.957Z,6.60
2019-03-13T11:36:02.666Z,6.70
2019-03-13T11:38:51.655Z,6.70
2019-03-13T11:41:40.507Z,6.70
2019-03-13T11:44:24.431Z,6.70
2019-03-13T11:47:41.827Z,6.80
2019-03-13T11:50:11.987Z,6.90
2019-03-13T11:53:11.999Z,6.90
2019-03-13T11:55:45.050Z,6.90
2019-03-13T11:58:19.366Z,6.90
2019-03-13T12:00:58.051Z,6.80
2019-03-13T12:03:45.696Z,6.80
2019-03-13T12:06:34.947Z,6.90
2019-03-13T12:09:18.529Z,6.90
2019-03-13T12:11:50.273Z,6.90
2019-03-13T12:14:23.255Z,6.90
2019-03-13T12:17:05.686Z,6.90
2019-03-13T12:19:40.830Z,7.00
2019-03-13T12:22:28.984Z,7.10
2019-03-13T12:25:06.947Z,7.10
2019-03-13T12:27:43.458Z,7.20
2019-03-13T12:30:18.951Z,7.30
2019-03-13T12:33:07.621Z,7.30
2019-03-13T12:35:45.626Z,7.30
2019-03-13T12:38:23.893Z,7.30
2019-03-13T12:40:58.833Z,7.20
2019-03-13T12:43:39.783Z,7.30
2019-03-13T12:46:28.609Z,7.30
2019-03-13T12:49:14.207Z,7.30
2019-03-13T12:52:02.722Z,7.20
2019-03-13T12:54:44.083Z,7.10
2019-03-13T12:57:16.600Z,7.00
2019-03-13T12:59:53.327Z,6.90
2019-03-13T13:02:38.326Z,6.90
2019-03-13T13:05:22.979Z,6.80
2019-03-13T13:08:04.490Z,6.70
2019-03-13T13:10:42.190Z,6.60
2019-03-13T13:13:30.911Z,6.50
2019-03-13T13:16:22.230Z,6.40
2019-03-13T13:18:52.684Z,6.40
2019-03-13T13:21:22.829Z,6.40
2019-03-13T13:23:53.411Z,6.30
2019-03-13T13:26:23.120Z,6.30
2019-03-13T13:28:53.166Z,6.20
2019-03-13T13:31:25.600Z,6.20
2019-03-13T13:33:59.032Z,6.20
2019-03-13T13:36:35.479Z,6.20
2019-03-13T13:39:09.270Z,6.20
2019-03-13T13:41:40.926Z,6.20
2019-03-13T13:44:13.236Z,6.10
2019-03-13T13:46:44.837Z,6.00
2019-03-13T13:49:15.240Z,5.90
2019-03-13T13:51:45.131Z,5.80
2019-03-13T13:54:20.554Z,5.80
2019-03-13T13:56:52.077Z,5.70
2019-03-13T13:59:24.085Z,5.70
2019-03-13T14:01:55.400Z,5.60
2019-03-13T14:04:32.003Z,5.60
2019-03-13T14:07:03.997Z,5.60
2019-03-13T14:09:36.638Z,5.60
2019-03-13T14:12:07.223Z,5.60
2019-03-13T14:14:39.945Z,5.60
2019-03-13T14:17:11.500Z,5.60
2019-03-13T14:19:41.868Z,5.70
2019-03-13T14:22:16.058Z,5.70
2019-03-13T14:24:48.887Z,5.70
2019-03-13T14:27:21.970Z,5.60
2019-03-13T14:29:51.767Z,5.60
2019-03-13T14:32:21.251Z,5.60
2019-03-13T14:34:57.858Z,5.60
2019-03-13T14:37:28.204Z,5.50
2019-03-13T14:39:58.520Z,5.50
2019-03-13T14:42:29.150Z,5.50
2019-03-13T14:45:08.459Z,5.50
2019-03-13T14:47:39.088Z,5.50
2019-03-13T14:50:16.847Z,5.50
2019-03-13T14:52:47.709Z,5.60
2019-03-13T14:55:21.115Z,5.60
2019-03-13T14:57:54.203Z,5.60
2019-03-13T15:00:27.182Z,5.60
2019-03-13T15:03:13.015Z,5.70
2019-03-13T15:05:52.891Z,5.70
2019-03-13T15:08:28.620Z,5.70
2019-03-13T15:11:02.299Z,5.70
2019-03-13T15:13:33.173Z,5.80
2019-03-13T15:16:06.815Z,5.90
2019-03-13T15:18:39.720Z,6.00
2019-03-13T15:21:18.796Z,6.10
2019-03-13T15:23:51.342Z,6.10
2019-03-13T15:26:23.592Z,6.10
2019-03-13T15:28:55.901Z,6.10
2019-03-13T15:31:27.126Z,6.10
2019-03-13T15:33:59.528Z,6.10
2019-03-13T15:36:29.949Z,6.20
2019-03-13T15:39:06.689Z,6.20
2019-03-13T15:41:39.293Z,6.30
2019-03-13T15:44:12.551Z,6.40
2019-03-13T15:46:44.644Z,6.40
2019-03-13T15:49:16.060Z,6.50
2019-03-13T15:51:47.494Z,6.50
2019-03-13T15:54:22.824Z,6.50
2019-03-13T15:56:54.368Z,6.50
2019-03-13T15:59:26.375Z,6.50
2019-03-13T16:02:00.017Z,6.50
2019-03-13T16:04:32.997Z,6.50
2019-03-13T16:07:11.782Z,6.50
2019-03-13T16:09:43.868Z,6.40
2019-03-13T16:12:16.163Z,6.40
2019-03-13T16:14:46.914Z,6.40
2019-03-13T16:17:17.109Z,6.30
2019-03-13T16:19:47.454Z,6.30
2019-03-13T16:22:28.263Z,6.30
2019-03-13T16:24:59.266Z,6.40
2019-03-13T16:27:36.107Z,6.40
2019-03-13T16:30:22.800Z,6.40
2019-03-13T16:32:58.475Z,6.30
2019-03-13T16:35:29.892Z,6.20
2019-03-13T16:38:03.630Z,6.10
2019-03-13T16:40:38.402Z,6.10
2019-03-13T16:43:14.469Z,6.10
2019-03-13T16:45:42.174Z,6.10
2019-03-13T16:48:17.519Z,6.10
2019-03-13T16:50:48.906Z,6.10
2019-03-13T16:53:20.538Z,6.00
2019-03-13T16:55:50.351Z,6.00
2019-03-13T16:58:21.644Z,6.00
2019-03-13T17:00:52.073Z,6.00
2019-03-13T17:03:21.960Z,6.00
2019-03-13T17:05:53.462Z,6.00
2019-03-13T17:08:24.538Z,6.10
2019-03-13T17:10:55.100Z,6.10
2019-03-13T17:13:24.968Z,6.10
2019-03-13T17:15:56.120Z,6.10
2019-03-13T17:18:26.807Z,6.00
2019-03-13T17:20:56.495Z,6.00
2019-03-13T17:23:26.202Z,6.00
2019-03-13T17:25:56.610Z,6.00
2019-03-13T17:28:26.090Z,5.90
2019-03-13T17:30:58.468Z,5.90
2019-03-13T17:33:28.974Z,5.90
2019-03-13T17:36:00.503Z,5.90
2019-03-13T17:38:31.018Z,5.90
2019-03-13T17:41:03.678Z,5.90
2019-03-13T17:43:39.632Z,5.80
2019-03-13T17:46:10.106Z,5.70
2019-03-13T17:48:39.731Z,5.70
2019-03-13T17:51:11.880Z,5.70
2019-03-13T17:53:42.757Z,5.70
2019-03-13T17:56:13.026Z,5.70
2019-03-13T17:58:43.131Z,5.70
2019-03-13T18:01:13.932Z,5.60
2019-03-13T18:03:45.589Z,5.60
2019-03-13T18:06:17.896Z,5.60
2019-03-13T18:08:49.650Z,5.70
2019-03-13T18:11:22.087Z,5.70
2019-03-13T18:13:53.770Z,5.70
2019-03-13T18:16:23.479Z,5.60
2019-03-13T18:18:54.110Z,5.60
2019-03-13T18:21:26.712Z,5.60
2019-03-13T18:23:59.464Z,5.60
2019-03-13T18:26:30.780Z,5.60
2019-03-13T18:29:02.770Z,5.60
2019-03-13T18:31:37.234Z,5.70
2019-03-13T18:34:11.965Z,5.70
2019-03-13T18:36:49.403Z,5.80
2019-03-13T18:39:25.010Z,5.90
2019-03-13T18:41:55.341Z,5.90
2019-03-13T18:44:28.027Z,5.90
2019-03-13T18:46:58.624Z,6.00
2019-03-13T18:49:30.359Z,5.90
2019-03-13T18:52:00.413Z,6.00
2019-03-13T18:54:40.296Z,6.00
2019-03-13T18:57:10.630Z,6.00
2019-03-13T18:59:42.158Z,6.00
2019-03-13T19:02:16.333Z,6.00
2019-03-13T19:04:46.731Z,6.10
2019-03-13T19:07:17.248Z,6.10
2019-03-13T19:09:48.406Z,6.10
2019-03-13T19:14:54.161Z,6.00
2019-03-13T19:17:24.150Z,6.00
2019-03-13T19:19:54.332Z,6.00
2019-03-13T19:22:25.522Z,6.00
2019-03-13T19:24:57.685Z,6.10
2019-03-13T19:27:27.034Z,6.10
2019-03-13T19:29:57.477Z,6.10
2019-03-13T19:32:27.171Z,6.10
2019-03-13T19:34:56.703Z,6.10
2019-03-13T19:37:30.527Z,6.10
2019-03-13T19:40:03.075Z,6.10
2019-03-13T19:42:33.446Z,6.10
2019-03-13T19:45:05.211Z,6.10
2019-03-13T19:47:36.705Z,6.10
2019-03-13T19:50:13.505Z,6.10
2019-03-13T19:52:48.164Z,6.10
2019-03-13T19:55:18.583Z,6.10
2019-03-13T19:57:49.680Z,6.10
2019-03-13T20:00:26.309Z,6.10
2019-03-13T20:03:05.931Z,6.10
2019-03-13T20:05:45.462Z,6.10
2019-03-13T20:08:13.688Z,6.20
2019-03-13T20:10:44.213Z,6.20
2019-03-13T20:13:13.783Z,6.20
2019-03-13T20:15:45.675Z,6.30
2019-03-13T20:18:16.281Z,6.30
2019-03-13T20:20:47.080Z,6.30
2019-03-13T20:23:21.550Z,6.30
2019-03-13T20:25:52.472Z,6.30
2019-03-13T20:28:22.759Z,6.40
2019-03-13T20:30:53.062Z,6.40
2019-03-13T20:33:23.858Z,6.40
2019-03-13T20:35:53.485Z,6.40
2019-03-13T20:38:25.908Z,6.40
2019-03-13T20:40:55.393Z,6.40
2019-03-13T20:43:25.135Z,6.30
2019-03-13T20:45:56.096Z,6.30
2019-03-13T20:48:26.286Z,6.40
2019-03-13T20:50:56.227Z,6.40
2019-03-13T20:53:26.888Z,6.40
2019-03-13T20:55:58.907Z,6.40
2019-03-13T20:58:28.652Z,6.40
2019-03-13T21:00:58.070Z,6.40
2019-03-13T21:03:28.066Z,6.40
2019-03-13T21:06:00.492Z,6.40
2019-03-13T21:08:30.111Z,6.40
2019-03-13T21:11:00.558Z,6.30
2019-03-13T21:13:30.560Z,6.30
2019-03-13T21:16:03.834Z,6.30
2019-03-13T21:18:34.374Z,6.30
2019-03-13T21:21:04.844Z,6.20
2019-03-13T21:23:34.696Z,6.30
2019-03-13T21:26:04.598Z,6.20
2019-03-13T21:28:34.445Z,6.20
2019-03-13T21:31:04.385Z,6.20
2019-03-13T21:33:33.986Z,6.10
2019-03-13T21:36:05.879Z,6.20
2019-03-13T21:38:35.840Z,6.10
2019-03-13T21:41:05.429Z,6.10
2019-03-13T21:43:35.385Z,6.10
2019-03-13T21:46:06.776Z,6.20
2019-03-13T21:48:36.444Z,6.20
2019-03-13T21:51:05.855Z,6.20
2019-03-13T21:53:36.307Z,6.30
2019-03-13T21:56:07.195Z,6.30
2019-03-13T21:58:36.614Z,6.30
2019-03-13T22:01:18.851Z,6.30
2019-03-13T22:03:38.094Z,6.30
2019-03-13T22:06:07.857Z,6.30
2019-03-13T22:08:38.339Z,6.30
2019-03-13T22:11:08.062Z,6.30
2019-03-13T22:13:38.816Z,6.30
2019-03-13T22:16:09.860Z,6.30
2019-03-13T22:18:39.683Z,6.30
2019-03-13T22:21:09.008Z,6.30
2019-03-13T22:23:38.688Z,6.30
2019-03-13T22:26:08.722Z,6.30
2019-03-13T22:28:38.059Z,6.30
2019-03-13T22:31:07.491Z,6.30
2019-03-13T22:33:37.262Z,6.30
2019-03-13T22:36:06.812Z,6.30
2019-03-13T22:38:36.596Z,6.40
2019-03-13T22:41:07.136Z,6.40
2019-03-13T22:43:36.632Z,6.40
2019-03-13T22:46:06.622Z,6.40
2019-03-13T22:48:36.265Z,6.30
2019-03-13T22:51:07.196Z,6.40
2019-03-13T22:53:36.840Z,6.40
2019-03-13T22:56:07.231Z,6.40
2019-03-13T22:58:36.832Z,6.40
2019-03-13T23:01:09.443Z,6.40
2019-03-13T23:03:40.736Z,6.40
2019-03-13T23:06:11.008Z,6.40
2019-03-13T23:08:40.533Z,6.30
2019-03-13T23:11:10.064Z,6.30
2019-03-13T23:13:39.733Z,6.30
2019-03-13T23:16:09.485Z,6.20
2019-03-13T23:18:39.179Z,6.30
2019-03-13T23:21:09.307Z,6.30
2019-03-13T23:23:38.805Z,6.20
2019-03-13T23:26:09.344Z,6.20
2019-03-13T23:28:39.017Z,6.10
2019-03-13T23:31:08.711Z,6.10
2019-03-13T23:33:38.998Z,6.10
2019-03-13T23:36:08.411Z,6.20
2019-03-13T23:38:37.881Z,6.20
2019-03-13T23:41:07.355Z,6.20
2019-03-13T23:43:36.768Z,6.20
2019-03-13T23:46:06.537Z,6.30
2019-03-13T23:48:36.173Z,6.30
2019-03-13T23:51:05.770Z,6.40
2019-03-13T23:53:35.111Z,6.40
2019-03-13T23:56:04.452Z,6.40
2019-03-13T23:58:33.766Z,6.40
